Time;durP1;ratioP1;P1;durP2;ratioP2;P2;SDS_P1;SDS_P2;PMS_P1;PMS_P2;Temp;Humidity;BMP_temperature;BMP_pressure;BME280_temperature;BME280_humidity;BME280_pressure;Samples;Min_cycle;Max_cycle;Signal;HPM_P1;HPM_P2
2024/04/17 00:01:57;;;;;;;;;2.00;2.00;;;;;9.49;72.93;100904.03;5451063;26;69661;-58
2024/04/17 00:04:23;;;;;;;;;3.00;2.00;;;;;9.44;72.75;100903.31;5456845;25;69546;-59
2024/04/17 00:06:48;;;;;;;;;3.75;2.00;;;;;9.42;72.33;100902.44;5460970;25;69223;-56
2024/04/17 00:09:13;;;;;;;;;4.75;2.00;;;;;9.41;73.27;100904.22;5456765;25;65369;-57
2024/04/17 00:11:38;;;;;;;;;3.75;1.75;;;;;9.43;73.85;100912.03;5444786;26;73632;-57
2024/04/17 00:14:04;;;;;;;;;1.00;1.00;;;;;9.42;72.81;100918.13;5461800;25;65863;-54
2024/04/17 00:16:29;;;;;;;;;3.00;2.00;;;;;9.36;72.84;100916.50;5461602;25;43834;-57
2024/04/17 00:18:54;;;;;;;;;4.75;3.00;;;;;9.34;73.76;100918.28;5461483;26;72009;-57
2024/04/17 00:21:20;;;;;;;;;5.50;3.25;;;;;9.28;72.66;100902.75;5453913;26;69714;-56
2024/04/17 00:23:45;;;;;;;;;2.25;2.25;;;;;9.25;72.72;100918.47;5462078;26;53336;-56
2024/04/17 00:26:10;;;;;;;;;7.00;3.00;;;;;9.22;72.84;100915.88;5456432;25;66217;-56
2024/04/17 00:28:36;;;;;;;;;4.00;2.25;;;;;9.16;72.53;100911.66;5455444;26;59157;-55
2024/04/17 00:31:01;;;;;;;;;6.25;3.25;;;;;9.16;73.64;100910.81;5438489;26;68034;-57
2024/04/17 00:33:26;;;;;;;;;4.00;3.25;;;;;9.16;73.33;100916.88;5443846;26;71199;-57
2024/04/17 00:35:52;;;;;;;;;4.00;1.25;;;;;9.14;73.45;100916.03;5461062;25;67629;-56
2024/04/17 00:38:17;;;;;;;;;3.25;2.00;;;;;9.11;72.91;100913.47;5455396;25;66492;-57
2024/04/17 00:40:42;;;;;;;;;3.00;3.00;;;;;9.10;74.01;100909.13;5436233;26;75448;-56
2024/04/17 00:43:08;;;;;;;;;2.00;2.00;;;;;9.09;72.58;100912.66;5448631;25;43951;-57
2024/04/17 00:45:38;;;;;;;;;7.75;1.50;;;;;9.07;73.80;100909.22;5454230;25;68109;-55
2024/04/17 00:48:04;;;;;;;;;1.75;1.75;;;;;9.04;74.25;100902.28;5458364;26;45439;-55
2024/04/17 00:50:29;;;;;;;;;2.25;2.00;;;;;9.06;72.99;100907.47;5457694;25;44749;-58
2024/04/17 00:52:55;;;;;;;;;2.50;1.75;;;;;9.04;73.32;100911.88;5446142;25;61719;-58
2024/04/17 00:55:21;;;;;;;;;6.25;3.00;;;;;9.00;74.22;100895.41;5427765;26;67893;-58
2024/04/17 00:57:47;;;;;;;;;7.00;2.00;;;;;8.92;73.98;100887.72;5459972;26;73083;-58
2024/04/17 01:00:13;;;;;;;;;9.00;3.00;;;;;8.90;74.55;100893.84;5449489;26;43872;-56
2024/04/17 01:02:39;;;;;;;;;3.50;3.50;;;;;8.87;74.18;100894.75;5448791;25;43856;-56
2024/04/17 01:05:04;;;;;;;;;5.50;2.50;;;;;8.85;74.03;100886.09;5461657;25;67644;-58
2024/04/17 01:07:30;;;;;;;;;5.75;2.25;;;;;8.86;74.46;100889.56;5447598;25;44037;-54
2024/04/17 01:09:55;;;;;;;;;3.00;2.00;;;;;8.83;74.95;100881.78;5428269;26;44731;-57
2024/04/17 01:12:20;;;;;;;;;4.75;3.00;;;;;8.82;74.93;100877.44;5443342;26;43937;-57
2024/04/17 01:14:46;;;;;;;;;2.50;2.50;;;;;8.81;74.16;100879.19;5449900;25;63595;-56
2024/04/17 01:17:11;;;;;;;;;3.25;3.25;;;;;8.80;74.40;100881.84;5460839;26;44183;-57
2024/04/17 01:19:37;;;;;;;;;6.50;3.00;;;;;8.78;74.76;100889.69;5450920;25;60585;-56
2024/04/17 01:22:02;;;;;;;;;4.50;2.00;;;;;8.73;74.86;100884.56;5435077;26;71759;-56
2024/04/17 01:24:28;;;;;;;;;4.75;3.75;;;;;8.71;74.41;100875.03;5457441;25;43897;-54
2024/04/17 01:26:53;;;;;;;;;3.75;3.75;;;;;8.67;75.63;100875.97;5436289;26;72315;-56
2024/04/17 01:29:18;;;;;;;;;7.75;2.00;;;;;8.69;75.80;100879.41;5456678;25;73964;-55
2024/04/17 01:31:44;;;;;;;;;4.50;2.50;;;;;8.67;76.29;100883.78;5458397;26;68036;-57
2024/04/17 01:34:09;;;;;;;;;3.00;2.00;;;;;8.58;75.97;100868.31;5443644;25;59461;-56
2024/04/17 01:36:34;;;;;;;;;2.50;2.00;;;;;8.61;75.07;100878.69;5454799;26;50717;-56
2024/04/17 01:39:00;;;;;;;;;2.75;2.75;;;;;8.53;75.30;100873.59;5457093;26;59799;-57
2024/04/17 01:41:25;;;;;;;;;8.00;2.75;;;;;8.53;76.56;100874.47;5460311;25;63966;-56
2024/04/17 01:43:50;;;;;;;;;2.00;2.00;;;;;8.50;76.49;100865.84;5461851;25;44004;-54
2024/04/17 01:46:16;;;;;;;;;6.50;3.00;;;;;8.49;76.50;100869.31;5462951;25;44212;-56
2024/04/17 01:48:41;;;;;;;;;3.50;3.00;;;;;8.47;76.27;100868.47;5457489;25;52106;-56
2024/04/17 01:51:06;;;;;;;;;4.00;3.00;;;;;8.44;76.58;100871.13;5463485;25;70581;-57
2024/04/17 01:53:32;;;;;;;;;3.50;2.00;;;;;8.41;76.12;100871.13;5452233;25;68339;-58
2024/04/17 01:55:57;;;;;;;;;2.00;1.00;;;;;8.39;77.21;100865.09;5462215;25;68799;-57
2024/04/17 01:58:22;;;;;;;;;3.50;3.00;;;;;8.35;77.47;100865.13;5457860;25;44626;-59
2024/04/17 02:00:48;;;;;;;;;2.00;2.00;;;;;8.36;77.49;100866.00;5422356;26;44408;-57
2024/04/17 02:03:13;;;;;;;;;3.00;1.00;;;;;8.36;77.01;100866.88;5436307;26;68583;-58
2024/04/17 02:05:38;;;;;;;;;7.00;2.00;;;;;8.35;77.08;100862.53;5460997;25;43899;-55
2024/04/17 02:08:04;;;;;;;;;2.00;2.00;;;;;8.35;76.99;100862.53;5461124;26;72927;-56
2024/04/17 02:10:29;;;;;;;;;3.75;2.00;;;;;8.37;77.83;100875.53;5444640;26;43904;-57
2024/04/17 02:12:54;;;;;;;;;7.25;3.00;;;;;8.34;77.49;100870.41;5454123;26;60226;-54
2024/04/17 02:15:20;;;;;;;;;6.75;3.00;;;;;8.33;77.66;100873.88;5451388;25;71909;-57
2024/04/17 02:17:45;;;;;;;;;5.00;2.25;;;;;8.33;77.18;100876.47;5461436;25;72871;-57
2024/04/17 02:20:10;;;;;;;;;5.75;4.00;;;;;8.31;77.20;100881.72;5434137;26;44450;-55
2024/04/17 02:22:36;;;;;;;;;6.50;2.50;;;;;8.30;77.54;100876.53;5457666;26;44088;-57
2024/04/17 02:25:02;;;;;;;;;4.75;2.25;;;;;8.29;77.57;100875.66;5455668;25;44909;-55
2024/04/17 02:27:27;;;;;;;;;4.25;2.50;;;;;8.27;76.82;100876.56;5456889;26;45031;-56
2024/04/17 02:29:53;;;;;;;;;2.50;2.00;;;;;8.23;77.50;100888.78;5448599;25;43758;-56
2024/04/17 02:32:18;;;;;;;;;2.00;2.00;;;;;8.22;77.82;100881.00;5459005;26;44063;-57
2024/04/17 02:34:43;;;;;;;;;2.00;2.00;;;;;8.16;77.54;100876.72;5450634;25;70649;-57
2024/04/17 02:37:09;;;;;;;;;6.25;1.00;;;;;8.15;77.71;100883.69;5451941;26;75159;-58
2024/04/17 02:39:34;;;;;;;;;2.25;2.00;;;;;8.12;78.38;100875.91;5456126;25;43942;-56
2024/04/17 02:41:59;;;;;;;;;2.75;2.75;;;;;8.16;78.22;100882.81;5438582;26;59598;-56
2024/04/17 02:44:25;;;;;;;;;4.00;2.25;;;;;8.17;78.14;100891.50;5444037;25;71999;-56
2024/04/17 02:46:50;;;;;;;;;6.50;3.00;;;;;8.15;78.00;100888.06;5451739;26;54751;-58
2024/04/17 02:49:15;;;;;;;;;3.25;2.00;;;;;8.13;77.25;100887.22;5451944;25;70815;-57
2024/04/17 02:51:40;;;;;;;;;5.75;4.00;;;;;8.10;77.96;100887.25;5463108;25;52036;-56
2024/04/17 02:54:06;;;;;;;;;3.75;2.00;;;;;8.07;78.27;100892.50;5454975;25;70611;-57
2024/04/17 02:56:31;;;;;;;;;3.00;3.00;;;;;8.06;77.64;100893.41;5462708;25;74846;-57
2024/04/17 02:58:56;;;;;;;;;2.75;2.00;;;;;8.02;77.88;100889.97;5459901;25;57146;-54
2024/04/17 03:01:22;;;;;;;;;4.50;3.75;;;;;8.03;77.96;100891.69;5450344;26;68231;-57
2024/04/17 03:03:47;;;;;;;;;2.75;2.00;;;;;8.01;78.12;100890.00;5459045;26;43958;-53
2024/04/17 03:06:13;;;;;;;;;6.50;2.00;;;;;7.97;78.22;100890.03;5455907;25;44883;-54
2024/04/17 03:08:38;;;;;;;;;3.00;2.00;;;;;7.94;78.66;100889.22;5452193;26;72216;-55
2024/04/17 03:11:03;;;;;;;;;2.00;2.00;;;;;7.92;78.09;100889.22;5430756;25;65483;-53
2024/04/17 03:13:29;;;;;;;;;2.50;2.50;;;;;7.88;78.56;100900.59;5452040;26;43850;-57
2024/04/17 03:15:54;;;;;;;;;4.50;2.00;;;;;7.90;79.13;100895.34;5460654;25;44236;-56
2024/04/17 03:18:20;;;;;;;;;3.25;2.00;;;;;7.90;78.08;100903.19;5460357;25;66457;-57
2024/04/17 03:20:46;;;;;;;;;2.50;2.00;;;;;7.91;78.60;100903.13;5460287;25;43858;-57
2024/04/17 03:23:11;;;;;;;;;3.50;2.00;;;;;7.92;78.12;100902.25;5464009;25;43750;-57
2024/04/17 03:25:36;;;;;;;;;6.00;2.00;;;;;7.91;78.42;100905.72;5453537;25;46475;-56
2024/04/17 03:28:02;;;;;;;;;4.00;2.25;;;;;7.91;78.50;100912.69;5453975;26;49146;-57
2024/04/17 03:30:27;;;;;;;;;1.75;1.75;;;;;7.90;78.69;100904.03;5464601;25;44170;-52
2024/04/17 03:32:53;;;;;;;;;2.50;2.25;;;;;7.86;78.50;100894.53;5465379;25;71993;-56
2024/04/17 03:35:18;;;;;;;;;3.25;3.25;;;;;7.85;79.02;100899.75;5490218;25;57588;-54
2024/04/17 03:37:44;;;;;;;;;3.50;2.00;;;;;7.85;78.29;100902.38;5458930;25;44378;-54
2024/04/17 03:40:10;;;;;;;;;2.00;2.00;;;;;7.83;78.68;100906.75;5493229;25;44113;-56
2024/04/17 03:42:35;;;;;;;;;4.00;2.00;;;;;7.83;78.91;100910.19;5460704;25;43921;-58
2024/04/17 03:45:00;;;;;;;;;3.00;2.00;;;;;7.85;79.06;100912.78;5461858;25;66423;-57
2024/04/17 03:47:25;;;;;;;;;4.00;1.75;;;;;7.84;78.19;100904.09;5418356;26;70958;-56
2024/04/17 03:49:53;;;;;;;;;5.00;3.00;;;;;7.83;79.61;100912.81;5447535;26;68184;-57
2024/04/17 03:52:18;;;;;;;;;1.75;0.50;;;;;7.80;78.69;100913.69;5464278;25;44000;-57
2024/04/17 03:54:43;;;;;;;;;1.75;1.75;;;;;7.79;79.11;100918.91;5460380;25;72055;-56
2024/04/17 03:57:08;;;;;;;;;3.00;2.00;;;;;7.78;79.68;100917.22;5448561;26;71785;-57
2024/04/17 03:59:34;;;;;;;;;5.00;1.25;;;;;7.78;79.60;100917.22;5457969;26;56698;-58
2024/04/17 04:02:03;;;;;;;;;3.00;2.75;;;;;7.79;79.03;100926.72;5452157;26;67454;-58
2024/04/17 04:04:29;;;;;;;;;2.50;0.00;;;;;7.76;79.57;100932.00;5458188;25;45381;-56
2024/04/17 04:06:54;;;;;;;;;1.00;1.00;;;;;7.70;78.88;100930.34;5443963;25;43830;-55
2024/04/17 04:09:20;;;;;;;;;3.75;2.00;;;;;7.68;79.30;100928.63;5462193;26;43992;-56
2024/04/17 04:11:45;;;;;;;;;3.25;2.00;;;;;7.67;79.17;100922.56;5449418;25;43846;-56
2024/04/17 04:14:10;;;;;;;;;2.00;2.00;;;;;7.65;78.64;100923.44;5451263;25;44916;-57
2024/04/17 04:16:36;;;;;;;;;0.00;0.00;;;;;7.64;79.42;100927.78;5447141;25;58268;-57
2024/04/17 04:19:01;;;;;;;;;2.00;1.00;;;;;7.68;79.15;100931.22;5459878;25;63398;-57
2024/04/17 04:21:26;;;;;;;;;4.00;2.00;;;;;7.70;79.19;100932.06;5442030;25;44185;-57
2024/04/17 04:23:52;;;;;;;;;3.00;3.00;;;;;7.71;79.17;100934.66;5448060;26;69671;-57
2024/04/17 04:26:17;;;;;;;;;4.00;2.00;;;;;7.71;78.74;100932.06;5448104;25;44072;-57
2024/04/17 04:28:46;;;;;;;;;5.50;2.50;;;;;7.70;79.31;100937.28;5459239;25;56102;-56
2024/04/17 04:31:13;;;;;;;;;2.00;1.00;;;;;7.68;79.24;100936.44;5460909;25;44002;-56
2024/04/17 04:33:39;;;;;;;;;1.25;1.25;;;;;7.67;79.28;100935.59;5456506;26;44335;-56
2024/04/17 04:36:04;;;;;;;;;2.00;2.00;;;;;7.68;79.51;100934.69;5461449;25;43932;-56
2024/04/17 04:38:30;;;;;;;;;2.00;1.00;;;;;7.72;79.61;100936.41;5461410;26;44037;-57
2024/04/17 04:40:55;;;;;;;;;2.00;2.00;;;;;7.71;79.64;100928.59;5457157;25;62164;-57
2024/04/17 04:43:21;;;;;;;;;8.00;2.00;;;;;7.71;79.67;100923.38;5435454;26;43847;-56
2024/04/17 04:45:46;;;;;;;;;1.50;1.50;;;;;7.78;79.95;100936.31;5460742;25;44013;-57
2024/04/17 04:48:11;;;;;;;;;1.75;1.75;;;;;7.81;79.41;100927.59;5456074;25;45191;-58
2024/04/17 04:50:36;;;;;;;;;1.75;1.50;;;;;7.85;79.04;100931.88;5457030;26;70673;-57
2024/04/17 04:53:02;;;;;;;;;2.75;1.50;;;;;7.86;80.03;100935.34;5456854;26;63096;-57
2024/04/17 04:55:27;;;;;;;;;2.00;2.00;;;;;7.92;78.63;100948.31;5462766;25;45875;-56
2024/04/17 04:57:52;;;;;;;;;4.00;1.00;;;;;7.94;78.82;100938.72;5434518;25;69299;-57
2024/04/17 05:00:18;;;;;;;;;3.00;2.00;;;;;7.98;79.03;100943.00;5461298;26;43910;-55
2024/04/17 05:02:43;;;;;;;;;2.00;1.00;;;;;8.06;79.75;100943.78;5422068;26;44882;-57
2024/04/17 05:05:09;;;;;;;;;5.00;3.00;;;;;8.12;79.51;100950.66;5456061;25;56640;-55
2024/04/17 05:07:35;;;;;;;;;2.50;2.50;;;;;8.17;78.63;100947.09;5452623;26;44043;-56
2024/04/17 05:10:00;;;;;;;;;3.25;3.00;;;;;8.21;78.51;100941.84;5459458;25;43841;-57
2024/04/17 05:12:26;;;;;;;;;2.00;2.00;;;;;8.19;79.05;100941.88;5449941;26;44080;-56
2024/04/17 05:14:51;;;;;;;;;5.00;2.00;;;;;8.17;78.52;100941.88;5444069;26;51582;-56
2024/04/17 05:17:16;;;;;;;;;2.00;2.00;;;;;8.18;79.18;100947.97;5454665;26;52684;-57
2024/04/17 05:19:42;;;;;;;;;2.25;2.00;;;;;8.20;79.34;100961.84;5456355;25;44027;-60
2024/04/17 05:22:07;;;;;;;;;4.00;2.00;;;;;8.22;79.05;100961.84;5461355;26;44902;-56
2024/04/17 05:24:32;;;;;;;;;2.50;2.00;;;;;8.24;78.55;100962.66;5463026;25;69721;-56
2024/04/17 05:26:58;;;;;;;;;3.50;1.50;;;;;8.24;80.07;100967.88;5456901;25;48961;-57
2024/04/17 05:29:23;;;;;;;;;3.25;1.75;;;;;8.28;79.59;100959.13;5446571;26;60484;-54
2024/04/17 05:31:48;;;;;;;;;2.00;2.00;;;;;8.30;80.49;100962.56;5456724;25;72991;-60
2024/04/17 05:34:14;;;;;;;;;2.50;2.00;;;;;8.33;79.63;100957.31;5455854;25;44411;-59
2024/04/17 05:36:39;;;;;;;;;3.25;3.00;;;;;8.36;78.66;100970.31;5460290;25;69126;-57
2024/04/17 05:39:05;;;;;;;;;2.75;2.75;;;;;8.31;79.05;100964.31;5465861;25;43996;-60
2024/04/17 05:41:30;;;;;;;;;2.75;2.75;;;;;8.29;80.32;100966.06;5494057;25;45597;-59
2024/04/17 05:43:56;;;;;;;;;2.25;2.00;;;;;8.30;79.08;100963.41;5463517;25;43927;-59
2024/04/17 05:46:25;;;;;;;;;10.25;4.00;;;;;8.30;80.24;100958.19;5479462;25;66141;-55
2024/04/17 05:48:54;;;;;;;;;7.25;4.00;;;;;8.34;79.69;100952.09;5454141;26;43935;-59
2024/04/17 05:51:19;;;;;;;;;4.50;2.75;;;;;8.39;79.35;100961.56;5430692;26;43914;-56
2024/04/17 05:53:45;;;;;;;;;7.00;4.50;;;;;8.39;79.28;100964.19;5434728;26;44268;-55
2024/04/17 05:56:10;;;;;;;;;3.00;2.50;;;;;8.39;79.30;100958.97;5452144;25;57641;-54
2024/04/17 05:58:35;;;;;;;;;4.00;2.00;;;;;8.38;79.92;100958.13;5457961;26;44194;-55
2024/04/17 06:01:01;;;;;;;;;5.00;3.00;;;;;8.41;79.71;100960.69;5491593;25;48602;-56
2024/04/17 06:03:26;;;;;;;;;3.00;3.00;;;;;8.45;79.10;100951.97;5465072;26;44145;-55
2024/04/17 06:05:51;;;;;;;;;5.25;4.00;;;;;8.50;78.61;100960.59;5459186;25;43767;-58
2024/04/17 06:08:17;;;;;;;;;4.50;3.00;;;;;8.54;78.92;100959.63;5429771;26;72915;-60
2024/04/17 06:10:42;;;;;;;;;4.50;3.00;;;;;8.60;78.76;100963.03;5439376;26;54585;-60
2024/04/17 06:13:07;;;;;;;;;2.00;2.00;;;;;8.63;79.56;100963.00;5444334;26;43914;-58
2024/04/17 06:15:35;;;;;;;;;8.00;3.00;;;;;8.70;78.88;100977.69;5431453;26;62871;-57
2024/04/17 06:18:02;;;;;;;;;4.00;4.00;;;;;8.74;78.37;100974.97;5495815;25;43951;-53
2024/04/17 06:20:28;;;;;;;;;8.00;4.75;;;;;8.73;79.03;100968.06;5449711;25;44844;-54
2024/04/17 06:22:53;;;;;;;;;3.75;2.00;;;;;8.74;78.72;100969.75;5461272;26;44408;-54
2024/04/17 06:25:19;;;;;;;;;7.50;4.00;;;;;8.74;78.16;100971.53;5461348;25;65158;-55
2024/04/17 06:27:44;;;;;;;;;5.00;3.50;;;;;8.77;77.97;100973.22;5435942;26;43998;-56
2024/04/17 06:30:10;;;;;;;;;6.25;3.00;;;;;8.76;77.06;100972.34;5445421;25;44002;-57
2024/04/17 06:32:35;;;;;;;;;3.75;3.75;;;;;8.79;77.75;100969.69;5454415;25;44004;-57
2024/04/17 06:35:00;;;;;;;;;6.75;5.00;;;;;8.79;77.43;100966.25;5447375;25;64539;-55
2024/04/17 06:37:26;;;;;;;;;7.25;5.00;;;;;8.79;77.06;100974.06;5466408;25;43830;-56
2024/04/17 06:39:51;;;;;;;;;7.25;4.00;;;;;8.78;77.17;100970.56;5427595;26;45373;-57
2024/04/17 06:42:17;;;;;;;;;10.75;7.25;;;;;8.76;77.72;100974.97;5458676;26;43922;-58
2024/04/17 06:44:43;;;;;;;;;10.75;8.75;;;;;8.73;77.31;100977.63;5455423;25;52047;-60
2024/04/17 06:47:09;;;;;;;;;12.75;11.00;;;;;8.73;76.56;100983.72;5450527;26;43984;-64
2024/04/17 06:49:34;;;;;;;;;5.75;5.50;;;;;8.78;77.53;100980.16;5461531;25;44122;-56
2024/04/17 06:51:59;;;;;;;;;9.50;3.00;;;;;8.88;77.06;100979.13;5429823;26;46892;-58
2024/04/17 06:54:24;;;;;;;;;7.25;3.00;;;;;9.00;76.43;100988.53;5455864;25;67651;-60
2024/04/17 06:56:50;;;;;;;;;6.75;4.00;;;;;9.06;75.60;100978.81;5459636;26;48525;-60
2024/04/17 06:59:15;;;;;;;;;7.50;5.25;;;;;9.09;75.23;100985.75;5449348;25;73509;-55
2024/04/17 07:01:40;;;;;;;;;5.75;4.00;;;;;9.15;75.00;100990.84;5457218;25;67383;-58
2024/04/17 07:04:06;;;;;;;;;4.25;4.25;;;;;9.19;75.46;100995.16;5444166;25;55349;-59
2024/04/17 07:06:32;;;;;;;;;7.00;3.00;;;;;9.18;74.58;100984.75;5458663;25;43970;-56
2024/04/17 07:08:57;;;;;;;;;5.25;4.00;;;;;9.16;74.55;100991.75;5455071;26;54455;-59
2024/04/17 07:11:22;;;;;;;;;2.75;2.75;;;;;9.13;73.15;100988.25;5455688;26;43880;-59
2024/04/17 07:13:48;;;;;;;;;4.00;3.00;;;;;9.11;73.53;100984.81;5449538;25;50257;-55
2024/04/17 07:16:14;;;;;;;;;4.75;4.00;;;;;9.15;74.56;100982.16;5461997;25;44416;-61
2024/04/17 07:18:39;;;;;;;;;4.00;3.00;;;;;9.20;73.68;100981.19;5442723;26;72666;-62
2024/04/17 07:21:05;;;;;;;;;4.75;4.00;;;;;9.29;73.86;100986.25;5459899;26;44144;-60
2024/04/17 07:23:31;;;;;;;;;6.25;5.50;;;;;9.34;73.52;100986.19;5461301;25;43823;-60
2024/04/17 07:25:57;;;;;;;;;11.25;10.00;;;;;9.39;73.74;100980.88;5453509;25;44039;-59
2024/04/17 07:28:22;;;;;;;;;5.25;3.75;;;;;9.38;72.33;100982.63;5435741;26;45403;-59
2024/04/17 07:30:47;;;;;;;;;3.00;3.00;;;;;9.36;72.32;100981.78;5451991;25;43873;-59
2024/04/17 07:33:13;;;;;;;;;4.00;3.75;;;;;9.37;71.48;100974.84;5452946;25;44259;-63
2024/04/17 07:35:39;;;;;;;;;5.25;3.75;;;;;9.42;71.40;100979.09;5449298;25;66582;-63
2024/04/17 07:38:05;;;;;;;;;4.50;3.00;;;;;9.49;71.70;100983.31;5494172;25;44856;-62
2024/04/17 07:40:30;;;;;;;;;1.00;1.00;;;;;9.53;71.50;100984.09;5453451;26;44051;-60
2024/04/17 07:42:55;;;;;;;;;3.25;3.25;;;;;9.59;70.92;100986.59;5464618;26;43913;-59
2024/04/17 07:45:21;;;;;;;;;3.50;2.50;;;;;9.66;71.05;100974.28;5455158;25;66519;-59
2024/04/17 07:47:47;;;;;;;;;3.50;2.00;;;;;9.82;70.17;100970.47;5430468;26;45229;-63
2024/04/17 07:50:13;;;;;;;;;4.50;2.25;;;;;9.95;69.18;100972.81;5434007;26;43831;-61
2024/04/17 07:52:38;;;;;;;;;4.00;3.00;;;;;10.00;69.33;100968.38;5432572;26;44017;-61
2024/04/17 07:55:04;;;;;;;;;3.25;2.50;;;;;10.10;69.15;100967.28;5457163;25;54604;-61
2024/04/17 07:57:29;;;;;;;;;5.50;1.00;;;;;10.15;68.54;100970.66;5429668;26;44881;-62
2024/04/17 07:59:55;;;;;;;;;1.25;1.00;;;;;10.16;66.92;100977.59;5428542;26;61494;-61
2024/04/17 08:02:20;;;;;;;;;2.50;1.75;;;;;10.17;67.22;100965.41;5459822;26;43988;-59
2024/04/17 08:04:46;;;;;;;;;12.00;5.50;;;;;10.23;66.57;100967.88;5424404;26;51825;-59
2024/04/17 08:07:12;;;;;;;;;6.50;1.25;;;;;10.18;65.74;100969.72;5450565;26;44092;-60
2024/04/17 08:09:38;;;;;;;;;5.50;3.00;;;;;10.16;65.57;100972.38;5447462;26;43928;-59
2024/04/17 08:12:04;;;;;;;;;2.50;2.00;;;;;10.13;65.44;100977.69;5447872;25;43839;-64
2024/04/17 08:14:29;;;;;;;;;1.00;1.00;;;;;10.12;66.23;100962.88;5424101;26;44011;-59
2024/04/17 08:16:56;;;;;;;;;3.25;1.50;;;;;10.17;65.79;100968.03;5457986;26;43992;-58
2024/04/17 08:19:21;;;;;;;;;5.00;1.75;;;;;10.24;65.15;100961.75;5457813;26;44296;-53
2024/04/17 08:21:47;;;;;;;;;3.00;0.25;;;;;10.24;64.20;100967.00;5458784;25;44337;-57
2024/04/17 08:24:12;;;;;;;;;2.50;1.00;;;;;10.21;64.14;100962.66;5453590;25;50908;-56
2024/04/17 08:26:37;;;;;;;;;1.75;1.50;;;;;10.26;63.86;100959.97;5446828;25;48040;-61
2024/04/17 08:29:03;;;;;;;;;2.50;1.00;;;;;10.34;63.90;100970.28;5459063;26;49862;-60
2024/04/17 08:31:28;;;;;;;;;5.00;2.75;;;;;10.41;63.40;100961.41;5431101;26;68474;-56
2024/04/17 08:33:54;;;;;;;;;1.00;1.00;;;;;10.48;62.66;100952.50;5460536;25;70338;-56
2024/04/17 08:36:19;;;;;;;;;2.75;1.75;;;;;10.57;62.23;100960.19;5465798;25;44611;-57
2024/04/17 08:38:44;;;;;;;;;2.00;0.25;;;;;10.65;62.08;100949.50;5464120;25;43846;-59
2024/04/17 08:41:10;;;;;;;;;0.00;0.00;;;;;10.74;61.20;100961.53;5465161;25;44060;-60
2024/04/17 08:43:38;;;;;;;;;4.50;2.00;;;;;10.73;60.00;100960.66;5442162;26;43924;-60
2024/04/17 08:46:04;;;;;;;;;5.50;1.00;;;;;10.74;60.52;100961.53;5447374;25;45331;-61
2024/04/17 08:48:32;;;;;;;;;2.00;1.25;;;;;10.72;59.47;100958.94;5434364;26;43719;-59
2024/04/17 08:50:58;;;;;;;;;0.75;0.00;;;;;10.71;58.95;100954.63;5465542;25;43855;-58
2024/04/17 08:53:25;;;;;;;;;1.00;1.00;;;;;10.73;58.31;100944.97;5462819;26;43925;-59
2024/04/17 08:55:51;;;;;;;;;3.50;1.00;;;;;10.77;58.44;100962.31;5448132;25;44064;-63
2024/04/17 08:58:17;;;;;;;;;5.00;2.00;;;;;10.83;58.72;100956.91;5430590;26;43773;-63
2024/04/17 09:00:48;;;;;;;;;3.50;1.25;;;;;10.92;57.94;100953.19;5438647;26;43896;-60
2024/04/17 09:03:16;;;;;;;;;8.00;2.50;;;;;11.03;57.61;100947.72;5427945;26;44543;-61
2024/04/17 09:05:42;;;;;;;;;3.50;2.00;;;;;11.10;58.03;100943.16;5445241;25;45127;-60
2024/04/17 09:08:08;;;;;;;;;9.25;4.75;;;;;11.16;57.12;100951.72;5461023;26;44303;-59
2024/04/17 09:10:34;;;;;;;;;2.00;2.00;;;;;11.27;57.05;100938.34;5412002;26;43939;-61
2024/04/17 09:13:00;;;;;;;;;1.00;1.00;;;;;11.40;57.06;100945.00;5424858;26;44300;-63
2024/04/17 09:15:27;;;;;;;;;1.00;1.00;;;;;11.55;56.62;100948.09;5463979;25;60163;-59
2024/04/17 09:17:52;;;;;;;;;3.00;1.00;;;;;11.55;56.08;100938.47;5437134;26;44450;-60
2024/04/17 09:20:18;;;;;;;;;5.00;1.50;;;;;11.54;56.14;100933.25;5464456;25;43725;-63
2024/04/17 09:22:43;;;;;;;;;3.00;1.75;;;;;11.59;55.18;100937.47;5457872;26;44019;-59
2024/04/17 09:25:19;;;;;;;;;7.75;2.00;;;;;11.64;55.41;100936.50;5453854;25;53383;-59
2024/04/17 09:27:45;;;;;;;;;2.75;1.75;;;;;11.76;55.33;100931.75;5431286;26;43876;-60
2024/04/17 09:30:12;;;;;;;;;3.00;1.50;;;;;11.87;54.51;100935.84;5450156;26;43842;-60
2024/04/17 09:32:38;;;;;;;;;5.50;1.00;;;;;12.03;54.37;100931.03;5429269;26;43727;-59
2024/04/17 09:35:04;;;;;;;;;3.50;1.50;;;;;12.27;54.44;100934.66;5461950;25;43839;-58
2024/04/17 09:37:31;;;;;;;;;2.50;2.00;;;;;12.35;53.98;100928.25;5450051;26;43925;-58
2024/04/17 09:40:06;;;;;;;;;8.75;5.25;;;;;12.39;52.73;100933.44;5451633;26;64526;-59
2024/04/17 09:42:42;;;;;;;;;8.25;4.00;;;;;12.42;53.11;100931.56;5431781;26;43626;-58
2024/04/17 09:45:11;;;;;;;;;3.00;1.00;;;;;12.44;51.81;100932.38;5457757;25;45833;-61
2024/04/17 09:47:40;;;;;;;;;15.25;4.00;;;;;12.48;51.81;100922.63;5452856;26;43725;-63
2024/04/17 09:50:07;;;;;;;;;2.50;1.50;;;;;12.52;52.51;100922.50;5465297;26;43769;-59
2024/04/17 09:52:35;;;;;;;;;3.50;2.00;;;;;12.54;51.95;100922.44;5463224;26;69996;-60
2024/04/17 09:55:02;;;;;;;;;3.25;0.75;;;;;12.61;51.55;100918.72;5449098;25;74187;-61
2024/04/17 09:57:28;;;;;;;;;2.00;1.00;;;;;12.78;50.88;100906.78;5441904;26;43977;-61
2024/04/17 09:59:54;;;;;;;;;2.00;2.00;;;;;13.00;51.08;100912.19;5449203;26;65119;-62
2024/04/17 10:02:20;;;;;;;;;1.50;1.50;;;;;13.22;50.33;100907.03;5462869;26;70734;-59
2024/04/17 10:04:46;;;;;;;;;3.75;1.00;;;;;13.42;50.86;100898.47;5432437;26;69838;-64
2024/04/17 10:07:12;;;;;;;;;3.75;2.25;;;;;13.52;49.90;100902.47;5455729;26;44289;-63
2024/04/17 10:09:41;;;;;;;;;5.75;2.00;;;;;13.53;50.35;100895.44;5463782;26;43844;-62
2024/04/17 10:12:13;;;;;;;;;2.50;2.00;;;;;13.66;50.21;100896.72;5461263;25;44105;-60
2024/04/17 10:14:39;;;;;;;;;3.50;3.25;;;;;13.83;50.10;100901.34;5452280;25;44921;-61
2024/04/17 10:17:06;;;;;;;;;3.25;2.00;;;;;14.06;50.40;100889.94;5459658;26;43838;-59
2024/04/17 10:19:32;;;;;;;;;2.50;1.25;;;;;14.18;49.40;100881.56;5465013;25;43918;-58
2024/04/17 10:21:57;;;;;;;;;5.25;2.00;;;;;14.29;48.68;100881.13;5467076;25;43809;-52
2024/04/17 10:24:23;;;;;;;;;6.25;1.50;;;;;14.41;48.01;100890.28;5465864;25;45724;-52
2024/04/17 10:26:49;;;;;;;;;1.00;1.00;;;;;14.50;46.51;100881.16;5441229;25;70521;-56
2024/04/17 10:29:16;;;;;;;;;1.50;1.50;;;;;14.56;46.23;100871.25;5442994;26;44113;-55
2024/04/17 10:31:41;;;;;;;;;2.00;1.00;;;;;14.56;46.16;100865.13;5451202;25;43926;-53
2024/04/17 10:34:06;;;;;;;;;3.00;1.00;;;;;14.61;44.65;100873.72;5439226;25;45916;-58
2024/04/17 10:36:33;;;;;;;;;1.25;1.00;;;;;14.76;44.76;100869.59;5457588;26;65452;-58
2024/04/17 10:38:59;;;;;;;;;1.75;1.00;;;;;14.97;45.42;100855.47;5430088;26;43883;-59
2024/04/17 10:41:27;;;;;;;;;1.50;1.50;;;;;15.09;44.08;100862.00;5446256;25;48061;-57
2024/04/17 10:43:53;;;;;;;;;2.25;1.50;;;;;15.17;43.48;100861.66;5450466;25;51470;-58
2024/04/17 10:46:21;;;;;;;;;1.75;0.25;;;;;15.12;42.21;100856.63;5442850;25;43888;-58
2024/04/17 10:48:48;;;;;;;;;2.25;1.25;;;;;15.09;43.78;100858.53;5446893;26;43935;-57
2024/04/17 10:51:14;;;;;;;;;2.00;2.00;;;;;15.09;43.02;100848.84;5449976;26;43923;-57
2024/04/17 10:53:42;;;;;;;;;2.00;1.50;;;;;15.18;42.49;100847.56;5439052;26;45685;-59
2024/04/17 10:56:09;;;;;;;;;2.00;2.00;;;;;15.20;41.54;100848.34;5465772;25;43939;-60
2024/04/17 10:58:34;;;;;;;;;4.25;1.00;;;;;15.05;41.53;100844.63;5456840;25;43705;-57
2024/04/17 11:01:01;;;;;;;;;4.00;1.50;;;;;14.85;42.33;100852.53;5457922;26;43741;-59
2024/04/17 11:03:26;;;;;;;;;1.25;1.25;;;;;14.68;42.21;100843.56;5452470;25;45106;-58
2024/04/17 11:05:53;;;;;;;;;2.25;2.00;;;;;14.58;42.88;100847.50;5458534;25;69520;-61
2024/04/17 11:08:18;;;;;;;;;2.00;1.25;;;;;14.52;42.38;100855.63;5448697;25;43780;-60
2024/04/17 11:10:44;;;;;;;;;2.75;2.00;;;;;14.44;42.62;100853.31;5442242;25;55073;-60
2024/04/17 11:13:16;;;;;;;;;2.00;2.00;;;;;14.31;42.57;100858.22;5429974;26;44720;-54
2024/04/17 11:15:41;;;;;;;;;5.75;2.00;;;;;14.16;43.42;100853.56;5456130;25;43861;-59
2024/04/17 11:18:08;;;;;;;;;8.00;3.00;;;;;14.15;43.96;100858.00;5466761;25;43930;-59
2024/04/17 11:20:36;;;;;;;;;2.00;1.25;;;;;14.22;42.61;100877.88;5465373;25;44015;-59
2024/04/17 11:23:08;;;;;;;;;1.00;1.00;;;;;14.22;43.52;100870.00;5466649;26;43968;-60
2024/04/17 11:25:38;;;;;;;;;3.25;2.00;;;;;14.22;43.08;100870.00;5457970;25;43800;-54